Time;durP1;ratioP1;P1;durP2;ratioP2;P2;SDS_P1;SDS_P2;PMS_P1;PMS_P2;Temp;Humidity;BMP_temperature;BMP_pressure;BME280_temperature;BME280_humidity;BME280_pressure;Samples;Min_cycle;Max_cycle;Signal;HPM_P1;HPM_P2
2022/03/26 00:01:35;;;;;;;;;47.50;36.00;;;;;16.15;33.65;102274.72;4975379;28;45376;-75
2022/03/26 00:04:00;;;;;;;;;47.25;39.25;;;;;16.20;33.59;102278.16;4967679;28;45387;-75
2022/03/26 00:06:25;;;;;;;;;52.00;40.00;;;;;16.20;33.68;102277.28;4975278;28;45325;-75
2022/03/26 00:08:51;;;;;;;;;50.00;41.25;;;;;16.19;33.69;102280.91;4978271;28;47072;-75
2022/03/26 00:11:16;;;;;;;;;51.00;40.25;;;;;16.14;33.65;102273.00;4978146;28;45453;-75
2022/03/26 00:13:42;;;;;;;;;53.75;41.25;;;;;16.19;33.64;102279.13;4971764;28;45621;-75
2022/03/26 00:16:07;;;;;;;;;52.50;42.50;;;;;16.16;33.56;102270.25;4976674;28;45312;-75
2022/03/26 00:18:33;;;;;;;;;48.50;40.00;;;;;16.14;33.48;102264.00;4976351;28;46503;-75
2022/03/26 00:20:58;;;;;;;;;48.00;41.25;;;;;16.14;33.59;102266.69;4968785;28;45362;-75
2022/03/26 00:23:23;;;;;;;;;48.50;40.50;;;;;16.15;33.88;102274.72;4978826;28;45463;-75
2022/03/26 00:25:49;;;;;;;;;45.50;38.25;;;;;16.11;33.89;102265.00;4976415;28;45348;-75
2022/03/26 00:28:14;;;;;;;;;50.75;41.00;;;;;16.14;33.61;102273.00;4979638;28;45411;-75
2022/03/26 00:30:40;;;;;;;;;52.00;41.00;;;;;16.12;33.88;102274.81;4977541;28;45324;-75
2022/03/26 00:33:05;;;;;;;;;51.25;39.75;;;;;16.05;33.87;102263.34;4977990;28;45503;-75
2022/03/26 00:35:31;;;;;;;;;56.75;43.75;;;;;16.08;34.04;102268.66;4978948;28;45337;-75
2022/03/26 00:37:56;;;;;;;;;56.00;43.00;;;;;16.08;33.85;102268.66;4966901;28;46539;-75
2022/03/26 00:40:22;;;;;;;;;54.50;43.00;;;;;15.96;33.97;102252.00;4979616;28;45343;-75
2022/03/26 00:42:47;;;;;;;;;56.00;41.75;;;;;16.02;34.05;102262.56;4979799;28;45301;-75
2022/03/26 00:45:13;;;;;;;;;49.25;41.50;;;;;16.00;34.05;102275.22;4979763;28;45366;-75
2022/03/26 00:47:38;;;;;;;;;50.50;42.25;;;;;16.00;34.00;102270.69;4976678;28;46937;-75
2022/03/26 00:50:04;;;;;;;;;56.75;46.00;;;;;15.98;33.52;102282.47;4974588;28;45166;-75
2022/03/26 00:52:29;;;;;;;;;47.00;38.25;;;;;15.96;34.19;102276.25;4975842;28;45255;-75
2022/03/26 00:54:54;;;;;;;;;50.75;40.25;;;;;15.90;34.34;102264.75;4976350;28;45447;-75
2022/03/26 00:57:20;;;;;;;;;52.75;43.00;;;;;15.91;34.31;102277.25;4979145;28;46020;-75
2022/03/26 00:59:45;;;;;;;;;52.25;42.75;;;;;15.85;34.36;102272.03;4979215;28;45447;-75
2022/03/26 01:02:11;;;;;;;;;53.00;43.50;;;;;15.88;34.37;102279.16;4979526;28;45258;-75
2022/03/26 01:04:38;;;;;;;;;53.75;44.25;;;;;15.87;34.23;102277.38;4979499;28;45316;-75
2022/03/26 01:07:04;;;;;;;;;52.25;42.50;;;;;15.82;34.54;102269.47;4979167;28;47360;-75
2022/03/26 01:09:29;;;;;;;;;43.75;35.75;;;;;15.74;34.49;102269.66;4979203;28;46529;-75
2022/03/26 01:11:55;;;;;;;;;54.00;44.00;;;;;15.72;34.21;102267.97;4979311;28;45527;-75
2022/03/26 01:14:21;;;;;;;;;57.25;43.50;;;;;15.72;34.48;102270.66;4978452;28;45537;-75
2022/03/26 01:16:46;;;;;;;;;51.75;40.75;;;;;15.62;34.64;102261.06;4980050;28;45326;-76
2022/03/26 01:19:12;;;;;;;;;53.50;45.00;;;;;15.66;34.63;102271.69;4977259;28;45159;-76
2022/03/26 01:21:37;;;;;;;;;50.00;39.50;;;;;15.56;34.53;102264.81;4979711;28;45402;-75
2022/03/26 01:24:03;;;;;;;;;55.00;43.50;;;;;15.52;34.74;102273.91;4982698;28;45397;-75
2022/03/26 01:26:28;;;;;;;;;51.25;41.00;;;;;15.45;34.80;102257.06;4981889;28;45209;-75
2022/03/26 01:28:53;;;;;;;;;50.25;42.50;;;;;15.51;34.81;102262.25;4982377;28;45396;-75
2022/03/26 01:31:20;;;;;;;;;54.50;42.50;;;;;15.51;34.93;102264.94;4981871;28;45420;-75
2022/03/26 01:33:47;;;;;;;;;54.25;44.00;;;;;15.48;34.91;102256.94;4981101;28;45425;-75
2022/03/26 01:36:13;;;;;;;;;51.25;40.50;;;;;15.38;35.00;102250.06;4978695;28;46687;-75
2022/03/26 01:38:38;;;;;;;;;49.75;40.50;;;;;15.29;35.06;102245.84;4980668;28;45371;-75
2022/03/26 01:41:04;;;;;;;;;54.25;43.25;;;;;15.25;34.81;102246.88;4982371;28;45451;-75
2022/03/26 01:43:29;;;;;;;;;55.25;41.50;;;;;15.18;35.23;102256.91;4981933;28;45495;-75
2022/03/26 01:45:54;;;;;;;;;43.50;35.50;;;;;15.18;35.39;102246.16;4982135;28;45354;-75
2022/03/26 01:48:20;;;;;;;;;55.25;43.00;;;;;15.17;35.01;102244.38;4982081;28;45447;-75
2022/03/26 01:50:45;;;;;;;;;53.50;43.25;;;;;15.15;35.12;102250.72;4982265;28;45384;-75
2022/03/26 01:53:11;;;;;;;;;52.50;42.75;;;;;15.07;35.02;102244.66;4979674;28;45371;-75
2022/03/26 01:55:36;;;;;;;;;51.50;41.00;;;;;15.03;35.39;102233.09;4976364;28;46285;-76
2022/03/26 01:58:02;;;;;;;;;54.25;42.50;;;;;15.04;35.48;102239.41;4981843;28;45253;-75
2022/03/26 02:00:28;;;;;;;;;53.75;42.75;;;;;15.03;35.38;102243.00;4982238;28;45243;-76
2022/03/26 02:02:54;;;;;;;;;50.75;41.75;;;;;15.00;35.37;102244.84;4977025;28;45253;-75
2022/03/26 02:05:20;;;;;;;;;54.50;42.75;;;;;15.01;35.55;102243.03;4981769;28;46034;-75
2022/03/26 02:07:47;;;;;;;;;52.50;41.75;;;;;15.00;35.64;102233.19;4973876;28;45711;-75
2022/03/26 02:10:14;;;;;;;;;52.00;42.25;;;;;15.03;35.90;102234.94;4979696;28;45287;-75
2022/03/26 02:12:41;;;;;;;;;48.75;39.50;;;;;15.03;35.78;102232.25;4981518;28;45481;-76
2022/03/26 02:15:07;;;;;;;;;53.25;42.00;;;;;14.99;35.98;102226.94;4981502;28;45359;-75
2022/03/26 02:17:34;;;;;;;;;51.50;40.50;;;;;15.00;35.99;102235.88;4980374;28;45209;-76
2022/03/26 02:20:00;;;;;;;;;53.00;42.50;;;;;14.99;35.91;102234.13;4981310;28;45306;-76
2022/03/26 02:22:27;;;;;;;;;46.00;38.50;;;;;14.97;35.69;102231.47;4981514;28;45478;-76
2022/03/26 02:24:54;;;;;;;;;52.00;41.50;;;;;14.96;35.80;102236.91;4981414;28;46159;-75
2022/03/26 02:27:24;;;;;;;;;48.00;40.25;;;;;14.96;35.67;102231.53;4981255;28;45788;-76
2022/03/26 02:29:50;;;;;;;;;49.75;40.50;;;;;14.89;35.84;102238.00;4985114;28;45518;-75
2022/03/26 02:32:24;;;;;;;;;54.75;42.00;;;;;14.87;35.66;102237.13;4980998;28;45456;-76
2022/03/26 02:34:51;;;;;;;;;45.75;38.00;;;;;14.86;35.61;102236.25;4978687;28;46108;-75
2022/03/26 02:37:17;;;;;;;;;56.25;41.25;;;;;14.79;35.83;102221.22;4976805;28;45399;-76
2022/03/26 02:39:43;;;;;;;;;48.50;38.50;;;;;14.86;36.05;102233.56;4980212;28;45432;-75
2022/03/26 02:42:09;;;;;;;;;53.00;43.25;;;;;14.79;36.12;102224.78;4980006;28;45569;-76
2022/03/26 02:44:34;;;;;;;;;52.50;40.50;;;;;14.70;36.01;102224.13;4973612;28;45396;-75
2022/03/26 02:47:00;;;;;;;;;52.75;42.25;;;;;14.63;36.04;102216.25;4980788;28;45399;-76
2022/03/26 02:49:25;;;;;;;;;50.25;41.00;;;;;14.63;36.21;102209.97;4981252;28;45324;-76
2022/03/26 02:51:51;;;;;;;;;52.25;41.00;;;;;14.61;36.19;102219.88;4980601;28;45707;-76
2022/03/26 02:54:19;;;;;;;;;50.25;43.00;;;;;14.62;35.89;102214.47;4991579;28;47048;-76
2022/03/26 02:56:49;;;;;;;;;49.25;40.50;;;;;14.64;36.17;102219.81;4969470;28;45262;-76
2022/03/26 02:59:16;;;;;;;;;50.75;43.00;;;;;14.63;36.06;102223.41;4966114;28;45505;-76
2022/03/26 03:01:41;;;;;;;;;42.25;35.25;;;;;14.55;36.29;102228.06;4975773;28;45233;-76
2022/03/26 03:04:07;;;;;;;;;53.00;42.00;;;;;14.49;36.09;102231.81;4968945;28;45629;-76
2022/03/26 03:06:33;;;;;;;;;53.25;43.00;;;;;14.36;36.25;102214.22;4981019;28;45377;-75
2022/03/26 03:08:58;;;;;;;;;53.25;41.75;;;;;14.39;36.32;102228.47;4969269;28;45585;-76
2022/03/26 03:11:24;;;;;;;;;47.25;40.25;;;;;14.34;36.18;102224.13;4980869;28;45453;-76
2022/03/26 03:13:50;;;;;;;;;51.00;40.50;;;;;14.31;36.25;102219.69;4980614;28;45208;-76
2022/03/26 03:16:15;;;;;;;;;51.25;41.25;;;;;14.29;36.38;102229.59;4977991;28;45822;-76
2022/03/26 03:18:41;;;;;;;;;49.75;40.00;;;;;14.29;36.58;102229.59;4978172;28;45140;-76
2022/03/26 03:21:07;;;;;;;;;52.75;41.25;;;;;14.28;36.41;102233.19;4979713;28;45883;-76
2022/03/26 03:23:32;;;;;;;;;51.25;41.00;;;;;14.27;36.48;102226.09;4980636;28;46720;-76
2022/03/26 03:25:57;;;;;;;;;55.50;43.75;;;;;14.29;36.45;102223.34;4980220;28;45305;-76
2022/03/26 03:28:23;;;;;;;;;51.00;40.50;;;;;14.30;36.87;102231.38;4978490;28;45675;-76
2022/03/26 03:30:49;;;;;;;;;50.25;38.50;;;;;14.26;36.88;102227.84;4979712;28;45641;-76
2022/03/26 03:33:14;;;;;;;;;52.00;41.00;;;;;14.24;36.68;102226.16;4980676;28;46251;-76
2022/03/26 03:35:39;;;;;;;;;50.75;40.00;;;;;14.30;36.88;102239.44;4980365;28;45321;-76
2022/03/26 03:38:05;;;;;;;;;50.50;41.75;;;;;14.28;36.99;102233.19;4980351;28;45391;-76
2022/03/26 03:40:30;;;;;;;;;52.00;42.75;;;;;14.31;36.79;102229.56;4980305;28;45373;-76
2022/03/26 03:42:56;;;;;;;;;52.00;41.25;;;;;14.26;36.50;102222.50;4966626;28;46388;-76
2022/03/26 03:45:21;;;;;;;;;45.75;38.50;;;;;14.20;36.66;102216.38;4980386;28;45297;-76
2022/03/26 03:47:47;;;;;;;;;47.00;40.00;;;;;14.20;36.78;102224.44;4970437;28;45212;-76
2022/03/26 03:50:12;;;;;;;;;51.25;41.75;;;;;14.17;36.67;102219.16;4980126;28;45318;-76
2022/03/26 03:52:37;;;;;;;;;49.75;40.75;;;;;14.12;36.58;102221.97;4979732;28;45475;-76
2022/03/26 03:55:05;;;;;;;;;49.25;40.25;;;;;14.17;36.87;102236.16;4978318;28;45310;-76
2022/03/26 03:57:30;;;;;;;;;53.75;42.50;;;;;14.15;36.82;102227.25;4980367;28;45281;-76
2022/03/26 03:59:55;;;;;;;;;51.25;39.75;;;;;14.07;36.88;102227.44;4979362;28;45217;-77
2022/03/26 04:02:21;;;;;;;;;51.00;41.50;;;;;14.06;36.84;102225.66;4979955;28;45333;-76
2022/03/26 04:04:46;;;;;;;;;45.25;36.75;;;;;14.07;36.71;102240.84;4980463;28;45375;-74
2022/03/26 04:07:11;;;;;;;;;53.50;44.00;;;;;14.01;36.88;102232.06;4970501;28;45411;-75
2022/03/26 04:09:37;;;;;;;;;56.50;44.00;;;;;14.03;36.92;102247.22;4969438;28;45645;-75
2022/03/26 04:12:03;;;;;;;;;52.00;41.25;;;;;13.99;36.76;102239.28;4972421;28;46561;-75
2022/03/26 04:14:29;;;;;;;;;51.50;41.50;;;;;13.93;36.76;102236.72;4975780;28;45836;-75
2022/03/26 04:16:55;;;;;;;;;49.25;39.25;;;;;13.98;36.97;102241.09;4974866;28;45710;-75
2022/03/26 04:19:21;;;;;;;;;52.25;41.25;;;;;13.90;37.10;102232.31;4978969;28;45683;-75
2022/03/26 04:21:46;;;;;;;;;49.50;39.50;;;;;13.95;37.12;102238.47;4974480;28;46268;-75
2022/03/26 04:24:12;;;;;;;;;54.50;42.25;;;;;13.90;37.13;102235.88;4973420;28;45222;-75
2022/03/26 04:26:37;;;;;;;;;48.50;40.75;;;;;13.89;37.29;102233.22;4979790;28;45978;-75
2022/03/26 04:29:03;;;;;;;;;51.50;40.00;;;;;13.92;37.11;102240.34;4977035;28;45423;-74
2022/03/26 04:31:28;;;;;;;;;47.25;37.50;;;;;13.92;37.28;102238.53;4974847;28;46275;-75
2022/03/26 04:33:54;;;;;;;;;47.75;40.75;;;;;13.94;37.22;102247.41;4979417;28;45464;-74
2022/03/26 04:36:20;;;;;;;;;49.25;40.00;;;;;13.99;37.22;102247.31;4979483;28;45168;-75
2022/03/26 04:38:47;;;;;;;;;51.00;41.75;;;;;14.00;37.50;102249.97;4993994;28;45438;-75
2022/03/26 04:41:13;;;;;;;;;56.00;44.00;;;;;14.01;37.18;102242.78;4979304;28;45352;-75
2022/03/26 04:43:39;;;;;;;;;51.75;41.50;;;;;13.86;37.47;102233.28;4979152;28;45842;-75
2022/03/26 04:46:04;;;;;;;;;48.75;39.75;;;;;13.90;37.13;102243.94;4979241;28;45394;-75
2022/03/26 04:48:30;;;;;;;;;49.50;42.00;;;;;13.90;37.49;102243.06;4977065;28;45504;-75
2022/03/26 04:50:55;;;;;;;;;53.75;43.50;;;;;13.90;37.45;102243.06;4978478;28;46207;-75
2022/03/26 04:53:20;;;;;;;;;54.25;44.00;;;;;13.95;37.57;102246.50;4978826;28;45371;-75
2022/03/26 04:55:46;;;;;;;;;52.50;39.75;;;;;13.90;37.54;102235.88;4982282;28;45296;-75
2022/03/26 04:58:11;;;;;;;;;50.00;40.75;;;;;13.95;37.67;102242.94;4982505;28;45277;-75
2022/03/26 05:00:36;;;;;;;;;55.50;45.00;;;;;13.95;37.38;102246.50;4982981;28;45410;-75
2022/03/26 05:03:02;;;;;;;;;50.00;39.00;;;;;13.92;37.50;102246.56;4982744;28;45293;-75
2022/03/26 05:05:27;;;;;;;;;34.50;31.50;;;;;13.87;37.30;102252.03;4982576;28;45284;-75
2022/03/26 05:07:55;;;;;;;;;44.50;36.00;;;;;13.83;37.50;102246.78;4982118;28;45599;-75
2022/03/26 05:10:28;;;;;;;;;47.00;35.75;;;;;13.82;37.63;102250.38;4981935;28;45977;-75
2022/03/26 05:12:54;;;;;;;;;47.75;39.25;;;;;13.81;37.63;102240.56;4982226;28;45528;-75
2022/03/26 05:15:23;;;;;;;;;46.50;37.25;;;;;13.85;37.63;102244.97;4981757;28;45267;-75
2022/03/26 05:17:49;;;;;;;;;53.00;42.00;;;;;13.88;37.69;102252.91;4991140;28;45399;-75
2022/03/26 05:20:16;;;;;;;;;54.75;40.75;;;;;13.86;37.78;102249.38;4981358;28;46073;-75
2022/03/26 05:22:42;;;;;;;;;51.75;42.25;;;;;13.89;37.75;102254.69;4975362;28;45505;-75
2022/03/26 05:25:08;;;;;;;;;50.75;42.25;;;;;13.90;37.75;102261.84;4982293;28;45484;-75
2022/03/26 05:27:34;;;;;;;;;49.00;38.00;;;;;13.87;37.69;102254.72;4982204;28;45535;-75
2022/03/26 05:30:00;;;;;;;;;53.00;42.25;;;;;13.81;38.11;102248.59;4979655;28;46405;-75
2022/03/26 05:32:25;;;;;;;;;47.00;38.00;;;;;13.86;37.92;102252.94;4982078;28;45336;-75
2022/03/26 05:34:51;;;;;;;;;46.75;39.25;;;;;13.85;37.93;102261.06;4982298;28;45426;-75
2022/03/26 05:37:18;;;;;;;;;51.50;40.75;;;;;13.83;37.88;102266.47;4982340;28;45502;-75
2022/03/26 05:39:44;;;;;;;;;51.50;40.00;;;;;13.84;37.87;102278.94;4980411;28;46929;-75
2022/03/26 05:42:09;;;;;;;;;49.75;41.50;;;;;13.80;37.79;102262.94;4977963;28;45312;-75
2022/03/26 05:44:35;;;;;;;;;48.50;37.75;;;;;13.80;37.97;102282.63;4972636;28;45359;-75
2022/03/26 05:47:00;;;;;;;;;49.50;38.50;;;;;13.81;37.89;102270.09;4978677;28;45500;-75
2022/03/26 05:49:26;;;;;;;;;46.75;39.50;;;;;13.79;37.84;102278.16;4967143;28;45511;-75
2022/03/26 05:51:51;;;;;;;;;50.75;41.25;;;;;13.73;37.80;102270.22;4975090;28;45479;-75
2022/03/26 05:54:17;;;;;;;;;54.75;44.00;;;;;13.65;37.89;102280.28;4974840;28;45369;-75
2022/03/26 05:56:51;;;;;;;;;52.25;42.50;;;;;13.62;37.98;102278.53;4981999;28;45214;-75
2022/03/26 05:59:19;;;;;;;;;54.25;43.50;;;;;13.51;38.01;102268.03;4978716;28;45329;-75
2022/03/26 06:01:45;;;;;;;;;48.75;39.00;;;;;13.59;38.29;102292.00;4970633;28;45744;-75
2022/03/26 06:04:10;;;;;;;;;47.25;37.50;;;;;13.59;38.28;102294.69;4981521;28;46307;-75
2022/03/26 06:06:35;;;;;;;;;49.50;40.50;;;;;13.42;38.15;102256.59;4975684;28;45360;-75
2022/03/26 06:09:01;;;;;;;;;50.75;40.50;;;;;13.61;38.42;102274.06;4981407;28;45416;-75
2022/03/26 06:11:27;;;;;;;;;47.50;39.50;;;;;13.55;38.15;102268.84;4981843;28;45573;-75
2022/03/26 06:13:52;;;;;;;;;48.75;39.25;;;;;13.61;38.17;102278.56;4981287;28;45505;-75
2022/03/26 06:16:18;;;;;;;;;47.25;40.00;;;;;13.61;38.18;102281.22;4985047;28;45778;-75
2022/03/26 06:18:44;;;;;;;;;50.75;40.50;;;;;13.57;38.07;102284.91;4981417;28;46283;-75
2022/03/26 06:21:09;;;;;;;;;45.25;37.00;;;;;13.59;38.11;102285.75;4982018;28;45371;-75
2022/03/26 06:23:34;;;;;;;;;49.00;40.25;;;;;13.62;38.28;102277.66;4981497;28;45395;-75
2022/03/26 06:26:00;;;;;;;;;52.50;42.00;;;;;13.58;38.22;102284.88;4981828;28;45329;-75
2022/03/26 06:28:25;;;;;;;;;55.75;43.25;;;;;13.59;38.16;102305.41;4979224;28;46034;-75
2022/03/26 06:30:51;;;;;;;;;44.50;35.50;;;;;13.59;38.28;102302.72;4979817;28;45491;-76
2022/03/26 06:33:18;;;;;;;;;55.00;42.25;;;;;13.60;38.41;102308.97;4980168;28;45368;-75
2022/03/26 06:35:44;;;;;;;;;55.75;43.50;;;;;13.57;38.19;102309.94;4980527;28;45281;-76
2022/03/26 06:38:10;;;;;;;;;50.50;40.25;;;;;13.58;38.38;102310.81;4978907;28;47992;-75
2022/03/26 06:40:37;;;;;;;;;50.50;41.75;;;;;13.54;38.48;102299.25;4980284;28;45530;-75
2022/03/26 06:43:04;;;;;;;;;52.00;40.75;;;;;13.59;38.43;102310.78;4980523;28;45350;-76
2022/03/26 06:45:30;;;;;;;;;51.75;42.00;;;;;13.53;38.45;102297.47;4981306;28;45378;-76
2022/03/26 06:47:55;;;;;;;;;53.00;41.50;;;;;13.63;38.57;102317.88;4981331;28;46072;-77
2022/03/26 06:50:21;;;;;;;;;54.50;43.00;;;;;13.61;38.44;102316.13;4979159;28;45383;-77
2022/03/26 06:52:46;;;;;;;;;54.25;44.75;;;;;13.60;38.52;102317.91;4979218;28;45985;-77
2022/03/26 06:55:12;;;;;;;;;50.25;42.25;;;;;13.61;38.43;102333.09;4980396;28;45430;-75
2022/03/26 06:57:37;;;;;;;;;53.00;44.50;;;;;13.62;38.47;102324.13;4978920;28;46076;-74
2022/03/26 07:00:05;;;;;;;;;45.75;39.50;;;;;13.59;38.75;102326.00;4979877;28;45441;-77
2022/03/26 07:02:31;;;;;;;;;50.00;41.25;;;;;13.64;38.54;102333.03;4979900;28;45411;-75
2022/03/26 07:04:56;;;;;;;;;53.25;43.25;;;;;13.62;38.51;102334.88;4978941;28;45566;-75
2022/03/26 07:07:22;;;;;;;;;52.25;41.50;;;;;13.60;38.61;102338.47;4976780;28;45415;-75
2022/03/26 07:09:47;;;;;;;;;50.00;40.75;;;;;13.62;38.55;102336.69;4975362;28;45388;-75
2022/03/26 07:12:13;;;;;;;;;50.00;40.50;;;;;13.61;38.40;102334.91;4980888;28;45463;-75
2022/03/26 07:14:38;;;;;;;;;53.00;45.50;;;;;13.63;38.47;102343.78;4970933;28;45363;-75
2022/03/26 07:17:04;;;;;;;;;52.75;43.00;;;;;13.68;38.51;102349.94;4981587;28;45630;-77
2022/03/26 07:19:30;;;;;;;;;51.50;42.75;;;;;13.58;38.60;102341.22;4975803;28;45390;-77
2022/03/26 07:21:55;;;;;;;;;55.00;43.00;;;;;13.64;38.37;102343.75;4974101;28;45391;-75
2022/03/26 07:24:20;;;;;;;;;53.75;42.25;;;;;13.66;38.64;102358.03;4977389;28;45420;-75
2022/03/26 07:26:46;;;;;;;;;52.00;42.00;;;;;13.63;38.56;102355.44;4978987;28;45398;-75
2022/03/26 07:29:11;;;;;;;;;55.00;44.75;;;;;13.66;38.60;102362.53;4973801;28;45309;-76
2022/03/26 07:31:37;;;;;;;;;55.75;43.00;;;;;13.67;38.62;102358.94;4971627;28;45309;-76
2022/03/26 07:34:02;;;;;;;;;53.00;42.25;;;;;13.66;38.47;102354.47;4974361;28;45552;-75
2022/03/26 07:36:28;;;;;;;;;52.50;41.50;;;;;13.66;38.38;102366.06;4979574;28;46097;-75
2022/03/26 07:38:53;;;;;;;;;53.00;41.75;;;;;13.66;38.46;102368.75;4971825;28;45349;-75
2022/03/26 07:41:18;;;;;;;;;58.75;42.75;;;;;13.69;38.94;102367.84;4974187;28;45330;-76
2022/03/26 07:43:44;;;;;;;;;54.50;43.50;;;;;13.71;38.63;102372.28;4963986;28;45503;-75
2022/03/26 07:46:09;;;;;;;;;54.50;44.75;;;;;13.76;38.73;102369.47;4970974;28;46094;-76
2022/03/26 07:48:34;;;;;;;;;51.75;43.25;;;;;13.77;38.71;102370.38;4980190;28;45277;-75
2022/03/26 07:51:00;;;;;;;;;56.50;45.75;;;;;13.82;38.74;102379.22;4973156;28;45243;-75
2022/03/26 07:53:27;;;;;;;;;51.75;40.50;;;;;13.81;38.14;102372.06;4980247;28;45194;-75
2022/03/26 07:55:53;;;;;;;;;52.25;43.00;;;;;13.77;38.53;102370.38;4980306;28;46275;-75
2022/03/26 07:58:19;;;;;;;;;51.50;41.75;;;;;13.80;38.02;102384.63;4977288;28;45307;-76
2022/03/26 08:00:44;;;;;;;;;54.00;41.75;;;;;13.73;37.86;102363.28;4977814;28;45506;-75
2022/03/26 08:03:10;;;;;;;;;53.50;43.75;;;;;13.73;37.74;102365.97;4978858;28;45309;-75
2022/03/26 08:05:36;;;;;;;;;49.25;41.25;;;;;13.64;37.84;102364.34;4979928;28;47003;-75
2022/03/26 08:08:01;;;;;;;;;51.75;42.25;;;;;13.64;37.90;102359.00;4979782;28;45323;-75
2022/03/26 08:10:27;;;;;;;;;49.50;41.50;;;;;13.51;37.63;102343.13;4976883;28;45523;-74
2022/03/26 08:12:53;;;;;;;;;51.25;42.00;;;;;13.62;37.84;102380.47;4979610;28;45425;-75
2022/03/26 08:15:18;;;;;;;;;54.25;43.75;;;;;13.64;38.04;102367.91;4979583;28;46205;-74
2022/03/26 08:17:44;;;;;;;;;49.50;41.25;;;;;13.64;37.91;102373.28;4979370;28;45341;-75
2022/03/26 08:20:10;;;;;;;;;51.75;40.50;;;;;13.64;37.89;102375.09;4976434;28;45166;-74
2022/03/26 08:22:35;;;;;;;;;53.25;43.00;;;;;13.66;37.76;102376.81;4979377;28;45505;-74
2022/03/26 08:25:01;;;;;;;;;49.50;41.00;;;;;13.70;37.65;102377.66;4979763;28;46105;-74
2022/03/26 08:27:26;;;;;;;;;47.75;37.75;;;;;13.70;37.71;102369.63;4979518;28;45582;-75
2022/03/26 08:29:52;;;;;;;;;48.75;38.75;;;;;13.70;37.47;102358.88;4982570;28;45507;-74
2022/03/26 08:32:18;;;;;;;;;50.00;41.75;;;;;13.80;37.79;102371.19;4985608;28;45523;-74
2022/03/26 08:34:44;;;;;;;;;47.75;38.50;;;;;13.87;37.28;102380.00;4985741;28;46255;-74
2022/03/26 08:37:10;;;;;;;;;48.00;39.50;;;;;13.89;37.12;102384.41;4979727;28;45368;-74
2022/03/26 08:39:35;;;;;;;;;51.25;39.25;;;;;13.89;37.11;102380.84;4981859;28;45607;-74
2022/03/26 08:42:01;;;;;;;;;53.25;41.00;;;;;13.90;37.11;102385.31;4985109;28;45401;-74
2022/03/26 08:44:26;;;;;;;;;49.50;40.00;;;;;13.94;37.32;102383.47;4976671;28;46097;-74
2022/03/26 08:46:52;;;;;;;;;55.50;42.00;;;;;13.98;37.15;102377.09;4984894;28;45383;-74
2022/03/26 08:49:17;;;;;;;;;50.50;42.25;;;;;14.01;37.46;102366.28;4978567;28;45397;-74
2022/03/26 08:51:43;;;;;;;;;49.00;40.50;;;;;14.10;37.13;102379.53;4977996;28;45527;-74
2022/03/26 08:54:09;;;;;;;;;47.00;39.50;;;;;14.14;36.63;102381.22;4977336;28;45396;-74
2022/03/26 08:56:34;;;;;;;;;52.25;40.75;;;;;14.19;36.62;102376.66;4986081;28;45230;-74
2022/03/26 08:58:59;;;;;;;;;50.50;41.00;;;;;14.25;36.73;102383.72;4982268;28;45550;-74
2022/03/26 09:01:25;;;;;;;;;50.50;38.50;;;;;14.32;36.84;102382.66;4982374;28;45304;-74
2022/03/26 09:03:50;;;;;;;;;57.25;46.00;;;;;14.38;36.66;102379.84;4985475;28;46407;-74
2022/03/26 09:06:17;;;;;;;;;48.50;39.75;;;;;14.45;36.85;102386.81;4981687;28;45406;-74
2022/03/26 09:08:42;;;;;;;;;50.50;41.50;;;;;14.48;36.43;102379.63;4978684;28;48469;-74
2022/03/26 09:11:07;;;;;;;;;51.75;42.00;;;;;14.53;36.48;102373.19;4983276;28;45585;-74
2022/03/26 09:13:33;;;;;;;;;53.25;42.75;;;;;14.63;36.62;102381.97;4984587;28;45554;-74
2022/03/26 09:15:58;;;;;;;;;42.50;36.00;;;;;14.69;36.17;102380.97;4985413;28;45622;-74
2022/03/26 09:18:25;;;;;;;;;50.25;39.50;;;;;14.75;36.45;102380.78;4982052;28;45380;-74
2022/03/26 09:20:51;;;;;;;;;51.75;42.50;;;;;14.77;36.21;102377.16;4976856;28;45526;-74
2022/03/26 09:23:16;;;;;;;;;52.00;40.75;;;;;14.82;36.34;102369.88;4985247;28;46334;-74
2022/03/26 09:25:42;;;;;;;;;49.25;39.00;;;;;14.90;35.94;102377.75;4981725;28;45249;-74
2022/03/26 09:28:09;;;;;;;;;54.75;42.50;;;;;14.98;35.92;102377.56;4984733;28;45221;-74
2022/03/26 09:30:34;;;;;;;;;50.50;41.25;;;;;15.03;35.68;102372.06;4984772;28;45343;-74
2022/03/26 09:33:00;;;;;;;;;50.75;41.50;;;;;15.10;35.62;102370.97;4984580;28;46250;-74
2022/03/26 09:35:26;;;;;;;;;41.50;33.75;;;;;15.18;35.71;102380.66;4985027;28;45509;-74
2022/03/26 09:37:51;;;;;;;;;51.25;41.50;;;;;15.26;35.42;102380.44;4984858;28;45756;-74
2022/03/26 09:40:20;;;;;;;;;56.50;44.00;;;;;15.27;35.51;102375.94;4984861;28;45316;-74
2022/03/26 09:42:45;;;;;;;;;50.50;40.25;;;;;15.32;35.16;102374.03;4980775;28;45511;-74
2022/03/26 09:45:11;;;;;;;;;49.50;41.25;;;;;15.36;35.53;102365.81;4981860;28;45368;-74
2022/03/26 09:47:37;;;;;;;;;49.75;41.75;;;;;15.43;35.51;102369.22;4982187;28;45468;-74
2022/03/26 09:50:05;;;;;;;;;47.75;39.50;;;;;15.49;35.32;102362.81;4977531;28;45444;-74
2022/03/26 09:52:30;;;;;;;;;54.00;40.25;;;;;15.54;35.45;102361.75;4979387;28;45199;-74
2022/03/26 09:54:57;;;;;;;;;51.00;41.25;;;;;15.67;35.35;102370.38;4980534;28;45226;-76
2022/03/26 09:57:22;;;;;;;;;51.00;41.75;;;;;15.68;34.89;102365.88;4981954;28;45474;-74
2022/03/26 09:59:47;;;;;;;;;50.00;38.50;;;;;15.73;34.84;102358.53;4981998;28;45830;-74
2022/03/26 10:02:13;;;;;;;;;45.75;37.50;;;;;15.80;34.75;102365.53;4981419;28;45282;-74
2022/03/26 10:04:40;;;;;;;;;46.75;39.00;;;;;15.85;34.62;102368.97;4981345;28;45418;-74
2022/03/26 10:07:07;;;;;;;;;54.00;43.00;;;;;15.84;34.78;102351.09;4981636;28;45325;-74
2022/03/26 10:09:47;;;;;;;;;51.75;42.25;;;;;15.92;34.67;102359.81;4979340;28;45713;-73
2022/03/26 10:12:17;;;;;;;;;56.25;44.00;;;;;15.99;34.82;102356.94;4980267;28;45807;-73
2022/03/26 10:14:44;;;;;;;;;54.50;43.00;;;;;16.08;34.66;102357.53;4980911;28;45431;-73
2022/03/26 10:17:15;;;;;;;;;53.00;43.00;;;;;16.17;34.72;102359.09;4983815;28;45439;-74
2022/03/26 10:19:49;;;;;;;;;51.25;41.00;;;;;16.25;34.46;102361.53;4981033;28;45414;-74
2022/03/26 10:22:27;;;;;;;;;55.75;43.50;;;;;16.30;34.41;102354.19;4981656;28;47040;-74
2022/03/26 10:24:54;;;;;;;;;54.25;44.50;;;;;16.40;34.41;102354.81;4981608;28;45756;-74
2022/03/26 10:27:20;;;;;;;;;49.75;41.75;;;;;16.48;34.16;102355.44;4980881;28;45528;-74
2022/03/26 10:29:59;;;;;;;;;58.75;46.00;;;;;16.55;33.89;102364.22;4979664;28;45375;-76
2022/03/26 10:32:45;;;;;;;;;54.75;42.50;;;;;16.51;33.78;102346.41;4975715;28;46060;-74
2022/03/26 10:35:24;;;;;;;;;53.50;43.75;;;;;16.62;33.73;102357.69;4970407;28;45801;-74
2022/03/26 10:37:58;;;;;;;;;53.00;43.25;;;;;16.68;33.75;102349.41;4977097;28;45304;-74
2022/03/26 10:40:31;;;;;;;;;47.75;38.25;;;;;16.76;33.72;102357.28;4970691;28;45430;-73
2022/03/26 10:43:01;;;;;;;;;51.75;41.75;;;;;16.83;33.53;102358.81;4979695;28;45416;-74
2022/03/26 10:45:28;;;;;;;;;51.50;42.50;;;;;16.88;33.73;102348.81;4963253;28;45353;-77
2022/03/26 10:47:55;;;;;;;;;57.25;44.00;;;;;16.97;32.97;102350.31;4976531;28;45317;-76
2022/03/26 10:50:21;;;;;;;;;52.25;42.00;;;;;17.02;33.28;102348.31;4979839;28;45384;-77
2022/03/26 10:52:47;;;;;;;;;56.25;45.50;;;;;17.09;32.93;102338.22;4980360;28;46370;-74
2022/03/26 10:55:17;;;;;;;;;51.50;41.50;;;;;17.17;32.96;102336.13;4975472;28;45295;-71
2022/03/26 10:57:47;;;;;;;;;52.50;41.75;;;;;17.17;32.39;102322.63;4975841;28;45538;-73
2022/03/26 11:00:17;;;;;;;;;55.00;44.25;;;;;17.26;32.69;102335.81;4971600;28;45305;-73
2022/03/26 11:02:43;;;;;;;;;53.25;43.75;;;;;17.30;32.67;102334.75;4965316;28;45466;-73
2022/03/26 11:05:09;;;;;;;;;57.00;44.00;;;;;17.30;32.55;102323.97;4969945;28;45516;-72